Flight Track Log - Related Links

Times and Time Zones

All times are in EDT time to prevent confusion due to time zone crossing. See the SWA2852 flight status page for this flight to view local times or setup timezone preferences in your user account.

Time Position Orientation Groundspeed Altitude Reporting Facility
EDT Latitude Longitude Course Direction KTS MPH feet Rate Location/Type
Sun 12:59:56 PM 28.4333 -81.3000 24° Northeast 164 189 800  Level Orlando TRACON
Sun 01:00:32 PM 28.4667 -81.2833 24° Northeast 201 231 1,700 2,563 Climbing Orlando TRACON
Sun 01:01:32 PM 28.5167 -81.2667 16° North 214 246 4,900 2,628 Climbing Orlando TRACON
Sun 01:02:33 PM 28.5833 -81.2333 24° Northeast 267 307 7,000 2,231 Climbing Orlando TRACON
Sun 01:03:33 PM 28.6500 -81.1833 33° Northeast 283 326 9,400 3,000 Climbing Orlando TRACON
Sun 01:04:33 PM 28.7333 -81.1833 360° North 302 348 13,000 3,421 Climbing Orlando TRACON
Sun 01:05:27 PM 28.7833 -81.2333 319° Northwest 276 318 15,900 1,200 Climbing Orlando TRACON
Sun 01:07:08 PM 28.9164 -81.2914 339° North 342 394 16,100 708 Climbing Jacksonville Center
Sun 01:08:08 PM 29.0003 -81.3375 334° Northwest 336 387 17,800 1,850 Climbing Jacksonville Center
Sun 01:09:08 PM 29.0969 -81.3858 336° Northwest 352 405 19,800 2,500 Climbing Jacksonville Center
Sun 01:10:08 PM 29.2078 -81.4008 353° North 385 443 22,800 2,500 Climbing Jacksonville Center
Sun 01:11:08 PM 29.3247 -81.4158 354° North 399 459 24,800 2,150 Climbing Jacksonville Center
Sun 01:12:08 PM 29.4586 -81.4258 356° North 424 488 27,100 2,050 Climbing Jacksonville Center
Sun 01:13:08 PM 29.5819 -81.4383 355° North 434 499 28,900 1,785 Climbing Jacksonville Center
Sun 01:14:09 PM 29.7092 -81.4483 356° North 446 513 30,700 2,000 Climbing Jacksonville Center
Sun 01:15:08 PM 29.8347 -81.4631 354° North 453 521 32,900 1,966 Climbing Jacksonville Center
Sun 01:16:08 PM 29.9619 -81.4614 North 453 521 34,600 1,650 Climbing Jacksonville Center
Sun 01:17:08 PM 30.0853 -81.4594 North 448 516 36,200 1,800 Climbing Jacksonville Center
Sun 01:18:08 PM 30.2083 -81.4553 North 438 504 38,200 1,350 Climbing Jacksonville Center
Sun 01:19:08 PM 30.3272 -81.4511 North 433 498 38,900 397 Climbing Jacksonville Center
Sun 01:20:09 PM 30.4525 -81.4492 North 433 498 39,000 50 Climbing Jacksonville Center
Sun 01:21:08 PM 30.5736 -81.4497 360° North 439 505 39,000  Level Jacksonville Center
Sun 01:22:08 PM 30.7008 -81.4478 North 439 505 39,000  Level Jacksonville Center
Sun 01:23:08 PM 30.8261 -81.4458 North 439 505 39,000  Level Jacksonville Center
Sun 01:24:08 PM 30.9514 -81.4439 North 439 505 39,000  Level Jacksonville Center
Sun 01:25:08 PM 31.0747 -81.4422 North 444 511 39,000  Level Jacksonville Center
Sun 01:26:08 PM 31.2019 -81.4328 North 437 503 39,000  Level Jacksonville Center
Sun 01:27:08 PM 31.3311 -81.4211 North 459 528 39,000  Level Jacksonville Center
Sun 01:28:08 PM 31.4456 -81.3875 14° North 470 541 39,000  Level Jacksonville Center
Sun 01:29:08 PM 31.5872 -81.3511 12° North 464 534 39,000  Level Jacksonville Center
Sun 01:30:08 PM 31.7036 -81.3200 13° North 469 540 39,000  Level Jacksonville Center
Sun 01:31:08 PM 31.8411 -81.2833 13° North 469 540 39,000  Level Jacksonville Center
Sun 01:32:08 PM 31.9597 -81.2494 14° North 469 540 39,000  Level Jacksonville Center
Sun 01:33:08 PM 32.0844 -81.2153 13° North 469 540 39,000  Level Jacksonville Center
Sun 01:34:08 PM 32.2094 -81.1933 North 463 533 39,000  Level Jacksonville Center
Sun 01:35:08 PM 32.3386 -81.1836 North 463 533 39,000  Level Jacksonville Center
Sun 01:36:08 PM 32.4806 -81.1736 North 458 527 39,000  Level Jacksonville Center
Sun 01:37:08 PM 32.6097 -81.1564 North 459 528 39,000  Level Jacksonville Center
Sun 01:38:08 PM 32.7242 -81.1369 North 465 535 39,000  Level Jacksonville Center
Sun 01:39:08 PM 32.8514 -81.1172 North 465 535 39,000  Level Jacksonville Center
Sun 01:40:08 PM 32.9847 -81.0947 North 465 535 39,000  Level Jacksonville Center
Sun 01:41:08 PM 33.1158 -81.0772 North 465 535 39,000  Level Jacksonville Center
Sun 01:42:08 PM 33.2428 -81.0572 North 459 528 39,000  Level Jacksonville Center
Sun 01:43:08 PM 33.3742 -81.0344 North 465 535 39,000  Level Jacksonville Center
Sun 01:44:08 PM 33.5031 -81.0144 North 470 541 39,000  Level Jacksonville Center
Sun 01:45:53 PM 33.7372 -80.9764 North 469 540 39,000  Level Atlanta Center
Sun 01:46:53 PM 33.8683 -80.9542 North 464 534 39,000  Level Atlanta Center
Sun 01:47:53 PM 33.9931 -80.9344 North 464 534 39,000  Level Atlanta Center
Sun 01:48:53 PM 34.1197 -80.9147 North 464 534 39,000  Level Atlanta Center
Sun 01:49:53 PM 34.2422 -80.8928 North 459 528 39,000  Level Atlanta Center
Sun 01:50:53 PM 34.3733 -80.8778 North 459 528 39,000  Level Atlanta Center
Sun 01:51:53 PM 34.4897 -80.8558 North 464 534 39,000  Level Atlanta Center
Sun 01:52:53 PM 34.6167 -80.8383 North 464 534 39,000  Level Atlanta Center
Sun 01:53:53 PM 34.7433 -80.8183 North 459 528 39,000  Level Atlanta Center
Sun 01:54:53 PM 34.8742 -80.7906 10° North 464 534 39,000  Level Atlanta Center
Sun 01:55:53 PM 35.0022 -80.7475 15° North 464 534 39,000  Level Atlanta Center
Sun 01:56:53 PM 35.1325 -80.7042 15° North 475 547 39,000  Level Atlanta Center
Sun 01:57:53 PM 35.2628 -80.6583 16° North 475 547 39,000  Level Atlanta Center
Sun 01:58:53 PM 35.3908 -80.6147 16° North 475 547 39,000  Level Atlanta Center
Sun 01:59:53 PM 35.5231 -80.5686 16° North 475 547 39,000  Level Atlanta Center
Sun 02:00:53 PM 35.6514 -80.5247 16° North 475 547 39,000  Level Atlanta Center
Sun 02:01:53 PM 35.7939 -80.4800 14° North 475 547 39,000  Level Atlanta Center
Sun 02:02:53 PM 35.9178 -80.4311 18° North 469 540 39,000  Level Atlanta Center
Sun 02:03:53 PM 36.0375 -80.3925 15° North 469 540 39,000  Level Atlanta Center
Sun 02:04:53 PM 36.1697 -80.3478 15° North 474 545 39,000  Level Atlanta Center
Sun 02:05:53 PM 36.2978 -80.3058 15° North 474 545 39,000  Level Atlanta Center
Sun 02:06:53 PM 36.4422 -80.2553 16° North 479 551 39,000  Level Atlanta Center
Sun 02:09:05 PM 36.7325 -80.1558 15° North 486 559 39,000  Level Washington Center
Sun 02:10:05 PM 36.8617 -80.1089 16° North 481 554 39,000  Level Washington Center
Sun 02:11:05 PM 36.9800 -80.0692 15° North 481 554 39,000  Level Washington Center
Sun 02:12:05 PM 37.1089 -80.0244 15° North 481 554 39,000  Level Washington Center
Sun 02:13:05 PM 37.2356 -79.9797 16° North 476 548 39,000  Level Washington Center
Sun 02:14:05 PM 37.3667 -79.9350 15° North 476 548 39,000  Level Washington Center
Sun 02:15:05 PM 37.4956 -79.8900 15° North 481 554 39,000  Level Washington Center
Sun 02:16:05 PM 37.6372 -79.8350 17° North 481 554 39,000  Level Washington Center
Sun 02:17:05 PM 37.7575 -79.7972 14° North 487 560 39,000  Level Washington Center
Sun 02:18:05 PM 37.8989 -79.7472 16° North 487 560 39,000  Level Washington Center
Sun 02:19:05 PM 38.0319 -79.6992 16° North 487 560 39,000  Level Washington Center
Sun 02:20:05 PM 38.1589 -79.6506 17° North 482 555 39,000  Level Washington Center
Sun 02:21:05 PM 38.2875 -79.6047 16° North 482 555 39,000  Level Washington Center
Sun 02:22:05 PM 38.4058 -79.5633 15° North 488 562 39,000  Level Washington Center
Sun 02:23:05 PM 38.5344 -79.5147 16° North 488 562 39,000  Level Washington Center
Sun 02:24:05 PM 38.6633 -79.4683 16° North 488 562 39,000  Level Washington Center
Sun 02:25:05 PM 38.8028 -79.4089 18° North 488 562 39,000  Level Washington Center
Sun 02:26:05 PM 38.9336 -79.3625 15° North 488 562 39,000  Level Washington Center
Sun 02:27:05 PM 39.0664 -79.3158 15° North 488 562 39,000  Level Washington Center
Sun 02:28:05 PM 39.1931 -79.2661 17° North 483 556 39,000  Level Washington Center
Sun 02:29:52 PM 39.4247 -79.1778 16° North 479 551 39,000  Level Cleveland Center
Sun 02:30:52 PM 39.5533 -79.1267 17° North 474 545 39,000  Level Cleveland Center
Sun 02:31:52 PM 39.6819 -79.0778 16° North 474 545 39,000  Level Cleveland Center
Sun 02:32:52 PM 39.8022 -79.0319 16° North 474 545 39,000  Level Cleveland Center
Sun 02:33:52 PM 39.9289 -78.9831 16° North 479 551 39,000  Level Cleveland Center
Sun 02:34:52 PM 40.0678 -78.9283 17° North 474 545 39,000  Level Cleveland Center
Sun 02:35:52 PM 40.1961 -78.8761 17° North 474 545 39,000 -750 Level Cleveland Center
Sun 02:36:52 PM 40.3142 -78.8294 17° North 474 545 37,500 -1,600 Descending Cleveland Center
Sun 02:37:52 PM 40.4408 -78.7825 16° North 474 545 35,800 -1,700 Descending Cleveland Center
Sun 02:38:52 PM 40.5692 -78.7300 17° North 474 545 34,100 -1,400 Descending Cleveland Center
Sun 02:39:52 PM 40.6933 -78.6797 17° North 474 545 33,000 -950 Descending Cleveland Center
Sun 02:40:52 PM 40.8258 -78.6267 17° North 474 545 32,200 -900 Descending Cleveland Center
Sun 02:41:52 PM 40.9564 -78.5761 16° North 479 551 31,200 -1,000 Descending Cleveland Center
Sun 02:42:52 PM 41.0828 -78.5253 17° North 479 551 30,200 -1,050 Descending Cleveland Center
Sun 02:43:52 PM 41.2047 -78.4744 17° North 466 536 29,100 -1,050 Descending Cleveland Center
Sun 02:44:52 PM 41.3247 -78.4264 17° North 461 531 28,100 -550 Descending Cleveland Center
Sun 02:45:52 PM 41.4550 -78.3722 17° North 446 513 28,000 -600 Descending Cleveland Center
Sun 02:46:52 PM 41.5731 -78.3239 17° North 440 506 26,900 -1,050 Descending Cleveland Center
Sun 02:47:52 PM 41.6867 -78.2753 18° North 435 501 25,900 -1,000 Descending Cleveland Center
Sun 02:48:52 PM 41.7983 -78.2294 17° North 430 495 24,900 -1,000 Descending Cleveland Center
Sun 02:49:52 PM 41.9078 -78.1836 17° North 420 483 23,900 -1,000 Descending Cleveland Center
Sun 02:50:52 PM 42.0175 -78.1433 15° North 415 478 22,900 -1,000 Descending Cleveland Center
Sun 02:51:52 PM 42.1228 -78.0972 18° North 409 471 21,900 -1,350 Descending Cleveland Center
Sun 02:52:52 PM 42.2242 -78.0539 18° North 391 450 20,200 -1,900 Descending Cleveland Center
Sun 02:53:52 PM 42.3211 -78.0136 17° North 378 435 18,100 -2,200 Descending Cleveland Center
Sun 02:54:52 PM 42.4203 -77.9731 17° North 366 421 15,800 -2,450 Descending Cleveland Center
Sun 02:55:52 PM 42.5214 -77.9294 18° North 366 421 13,200 -2,390 Descending Cleveland Center
Sun 02:56:50 PM 42.6103 -77.8917 17° North 361 415 11,100 -1,462 Descending Cleveland Center
Sun 02:57:51 PM 42.6933 -77.8797 North 280 322 10,300 -1,438 Descending Cleveland Center
Sun 02:58:51 PM 42.7767 -77.8847 357° North 271 312 8,200 -1,934 Descending Cleveland Center
Sun 02:59:52 PM 42.8456 -77.8903 357° North 271 312 6,400 -1,820 Descending Cleveland Center
Sun 03:00:53 PM 42.9136 -77.8503 23° Northeast 252 290 4,500 -1,304 Descending Cleveland Center
Sun 03:01:47 PM 42.9647 -77.8083 31° Northeast 210 242 3,900 -756 Descending Cleveland Center
Sun 03:02:52 PM 43.0094 -77.7694 32° Northeast 210 242 3,000 -992 Descending Cleveland Center
Sun 03:03:54 PM 43.0567 -77.7303 31° Northeast 164 189 1,800 -900 Descending Cleveland Center
Sun 03:04:52 PM 43.0831 -77.7064 33° Northeast 157 181 1,200 -621 Descending Cleveland Center
Sun 03:06:00 PM 43.1167 -77.6667 10° North  Level FlightAware Approximate
Sun 03:13:00 PM 43.1191 -77.6719 10° North  Level Estimated
Sun 03:14:00 PM 43.1167 -77.6667 10° North  Level FlightAware Approximate

Login

Don't have an account? Register now (free) for customized features, flight alerts, and more!